sensor_id;sensor_type;location;lat;lon;timestamp;P1;durP1;ratioP1;P2;durP2;ratioP2
70942;SDS011;59154;51.970;5.650;2022-10-16T00:00:03;5.2;;;2.5;;
70942;SDS011;59154;51.970;5.650;2022-10-16T00:05:02;6.5;;;2.6;;
70942;SDS011;59154;51.970;5.650;2022-10-16T00:10:03;5.8;;;2.2;;
70942;SDS011;59154;51.970;5.650;2022-10-16T00:15:02;5.2;;;2.5;;
70942;SDS011;59154;51.970;5.650;2022-10-16T00:20:03;4.1;;;2.8;;
70942;SDS011;59154;51.970;5.650;2022-10-16T00:25:02;4.7;;;2.5;;
70942;SDS011;59154;51.970;5.650;2022-10-16T00:30:03;6.4;;;3.0;;
70942;SDS011;59154;51.970;5.650;2022-10-16T00:35:02;9.5;;;3.3;;
70942;SDS011;59154;51.970;5.650;2022-10-16T00:40:03;3.8;;;2.6;;
70942;SDS011;59154;51.970;5.650;2022-10-16T00:45:02;6.1;;;2.9;;
70942;SDS011;59154;51.970;5.650;2022-10-16T00:50:04;4.9;;;3.2;;
70942;SDS011;59154;51.970;5.650;2022-10-16T00:55:02;7.0;;;3.3;;
70942;SDS011;59154;51.970;5.650;2022-10-16T01:00:03;3.7;;;2.6;;
70942;SDS011;59154;51.970;5.650;2022-10-16T01:05:03;4.8;;;2.9;;
70942;SDS011;59154;51.970;5.650;2022-10-16T01:10:06;4.6;;;2.6;;
70942;SDS011;59154;51.970;5.650;2022-10-16T01:15:04;5.7;;;2.6;;
70942;SDS011;59154;51.970;5.650;2022-10-16T01:20:06;3.8;;;2.5;;
70942;SDS011;59154;51.970;5.650;2022-10-16T01:25:02;4.6;;;2.7;;
70942;SDS011;59154;51.970;5.650;2022-10-16T01:30:04;4.8;;;2.6;;
70942;SDS011;59154;51.970;5.650;2022-10-16T01:35:03;3.9;;;2.7;;
70942;SDS011;59154;51.970;5.650;2022-10-16T01:40:05;6.6;;;3.2;;
70942;SDS011;59154;51.970;5.650;2022-10-16T01:45:02;4.2;;;2.6;;
70942;SDS011;59154;51.970;5.650;2022-10-16T01:50:03;5.2;;;2.9;;
70942;SDS011;59154;51.970;5.650;2022-10-16T01:55:03;3.8;;;2.4;;
70942;SDS011;59154;51.970;5.650;2022-10-16T02:00:04;5.2;;;2.6;;
70942;SDS011;59154;51.970;5.650;2022-10-16T02:05:03;4.9;;;2.3;;
70942;SDS011;59154;51.970;5.650;2022-10-16T02:10:03;5.4;;;2.4;;
70942;SDS011;59154;51.970;5.650;2022-10-16T02:15:02;3.5;;;2.2;;
70942;SDS011;59154;51.970;5.650;2022-10-16T02:20:03;2.5;;;1.7;;
70942;SDS011;59154;51.970;5.650;2022-10-16T02:25:04;3.5;;;2.0;;
70942;SDS011;59154;51.970;5.650;2022-10-16T02:30:04;2.8;;;1.9;;
70942;SDS011;59154;51.970;5.650;2022-10-16T02:35:03;4.1;;;2.4;;
70942;SDS011;59154;51.970;5.650;2022-10-16T02:40:03;4.7;;;2.2;;
70942;SDS011;59154;51.970;5.650;2022-10-16T02:45:02;4.7;;;2.0;;
70942;SDS011;59154;51.970;5.650;2022-10-16T02:50:03;3.0;;;1.9;;
70942;SDS011;59154;51.970;5.650;2022-10-16T02:55:03;2.6;;;2.0;;
70942;SDS011;59154;51.970;5.650;2022-10-16T03:00:04;3.1;;;2.1;;
70942;SDS011;59154;51.970;5.650;2022-10-16T03:05:02;4.1;;;2.4;;
70942;SDS011;59154;51.970;5.650;2022-10-16T03:10:02;4.6;;;2.0;;
70942;SDS011;59154;51.970;5.650;2022-10-16T03:15:02;4.5;;;2.4;;
70942;SDS011;59154;51.970;5.650;2022-10-16T03:20:03;3.3;;;2.0;;
70942;SDS011;59154;51.970;5.650;2022-10-16T03:25:03;3.0;;;1.9;;
70942;SDS011;59154;51.970;5.650;2022-10-16T03:30:03;4.6;;;2.0;;
70942;SDS011;59154;51.970;5.650;2022-10-16T03:35:02;2.7;;;2.0;;
70942;SDS011;59154;51.970;5.650;2022-10-16T03:40:03;3.7;;;2.2;;
70942;SDS011;59154;51.970;5.650;2022-10-16T03:45:03;2.7;;;2.0;;
70942;SDS011;59154;51.970;5.650;2022-10-16T03:50:03;3.3;;;2.0;;
70942;SDS011;59154;51.970;5.650;2022-10-16T03:55:03;2.3;;;1.6;;
70942;SDS011;59154;51.970;5.650;2022-10-16T04:00:04;3.4;;;1.9;;
70942;SDS011;59154;51.970;5.650;2022-10-16T04:05:03;2.6;;;1.7;;
70942;SDS011;59154;51.970;5.650;2022-10-16T04:10:03;3.8;;;1.8;;
70942;SDS011;59154;51.970;5.650;2022-10-16T04:15:02;3.9;;;1.7;;
70942;SDS011;59154;51.970;5.650;2022-10-16T04:20:03;4.7;;;1.8;;
70942;SDS011;59154;51.970;5.650;2022-10-16T04:25:03;4.2;;;1.9;;
70942;SDS011;59154;51.970;5.650;2022-10-16T04:30:02;3.8;;;1.9;;
70942;SDS011;59154;51.970;5.650;2022-10-16T04:35:02;2.3;;;1.7;;
70942;SDS011;59154;51.970;5.650;2022-10-16T04:40:03;4.0;;;2.1;;
70942;SDS011;59154;51.970;5.650;2022-10-16T04:45:03;5.4;;;1.7;;
70942;SDS011;59154;51.970;5.650;2022-10-16T04:50:03;2.8;;;1.6;;
70942;SDS011;59154;51.970;5.650;2022-10-16T04:55:02;3.4;;;2.1;;
70942;SDS011;59154;51.970;5.650;2022-10-16T05:00:03;3.6;;;1.8;;
70942;SDS011;59154;51.970;5.650;2022-10-16T05:05:02;3.6;;;1.8;;
70942;SDS011;59154;51.970;5.650;2022-10-16T05:10:02;2.2;;;1.7;;
70942;SDS011;59154;51.970;5.650;2022-10-16T05:15:02;3.3;;;2.0;;
70942;SDS011;59154;51.970;5.650;2022-10-16T05:20:03;3.4;;;1.7;;
70942;SDS011;59154;51.970;5.650;2022-10-16T05:25:02;3.0;;;1.8;;
70942;SDS011;59154;51.970;5.650;2022-10-16T05:30:03;4.2;;;2.2;;
70942;SDS011;59154;51.970;5.650;2022-10-16T05:35:02;3.7;;;3.0;;
70942;SDS011;59154;51.970;5.650;2022-10-16T05:40:03;4.1;;;2.3;;
70942;SDS011;59154;51.970;5.650;2022-10-16T05:45:02;3.7;;;2.0;;
70942;SDS011;59154;51.970;5.650;2022-10-16T05:50:03;4.9;;;2.5;;
70942;SDS011;59154;51.970;5.650;2022-10-16T05:55:03;3.8;;;2.1;;
70942;SDS011;59154;51.970;5.650;2022-10-16T06:00:03;3.4;;;1.8;;
70942;SDS011;59154;51.970;5.650;2022-10-16T06:05:02;3.2;;;2.0;;
70942;SDS011;59154;51.970;5.650;2022-10-16T06:10:03;5.1;;;2.3;;
70942;SDS011;59154;51.970;5.650;2022-10-16T06:15:02;4.5;;;2.1;;
70942;SDS011;59154;51.970;5.650;2022-10-16T06:20:02;4.1;;;2.0;;
70942;SDS011;59154;51.970;5.650;2022-10-16T06:25:02;9.9;;;2.4;;
70942;SDS011;59154;51.970;5.650;2022-10-16T06:30:03;3.2;;;2.0;;
70942;SDS011;59154;51.970;5.650;2022-10-16T06:35:02;2.2;;;1.8;;
70942;SDS011;59154;51.970;5.650;2022-10-16T06:40:03;3.9;;;2.3;;
70942;SDS011;59154;51.970;5.650;2022-10-16T06:45:02;2.8;;;1.8;;
70942;SDS011;59154;51.970;5.650;2022-10-16T06:50:03;4.6;;;2.0;;
70942;SDS011;59154;51.970;5.650;2022-10-16T06:55:02;3.9;;;2.0;;
70942;SDS011;59154;51.970;5.650;2022-10-16T07:00:03;3.2;;;2.1;;
70942;SDS011;59154;51.970;5.650;2022-10-16T07:05:03;3.1;;;1.9;;
70942;SDS011;59154;51.970;5.650;2022-10-16T07:10:02;3.0;;;2.0;;
70942;SDS011;59154;51.970;5.650;2022-10-16T07:15:02;2.7;;;1.8;;
70942;SDS011;59154;51.970;5.650;2022-10-16T07:20:02;4.1;;;1.8;;
70942;SDS011;59154;51.970;5.650;2022-10-16T07:25:03;3.6;;;1.9;;
70942;SDS011;59154;51.970;5.650;2022-10-16T07:30:03;4.0;;;1.8;;
70942;SDS011;59154;51.970;5.650;2022-10-16T07:35:02;4.8;;;2.2;;
70942;SDS011;59154;51.970;5.650;2022-10-16T07:40:03;3.9;;;2.5;;
70942;SDS011;59154;51.970;5.650;2022-10-16T07:45:02;2.6;;;1.9;;
70942;SDS011;59154;51.970;5.650;2022-10-16T07:50:03;2.7;;;1.8;;
70942;SDS011;59154;51.970;5.650;2022-10-16T07:55:02;4.0;;;1.9;;
70942;SDS011;59154;51.970;5.650;2022-10-16T08:00:04;4.1;;;1.8;;
70942;SDS011;59154;51.970;5.650;2022-10-16T08:05:03;2.8;;;1.8;;
70942;SDS011;59154;51.970;5.650;2022-10-16T08:10:03;5.0;;;2.0;;
70942;SDS011;59154;51.970;5.650;2022-10-16T08:15:02;3.5;;;2.2;;
70942;SDS011;59154;51.970;5.650;2022-10-16T08:20:03;4.0;;;1.9;;
70942;SDS011;59154;51.970;5.650;2022-10-16T08:25:02;4.1;;;2.0;;
70942;SDS011;59154;51.970;5.650;2022-10-16T08:30:02;3.9;;;2.3;;
70942;SDS011;59154;51.970;5.650;2022-10-16T08:35:02;4.8;;;2.1;;
70942;SDS011;59154;51.970;5.650;2022-10-16T08:40:04;3.6;;;2.4;;
70942;SDS011;59154;51.970;5.650;2022-10-16T08:45:07;4.3;;;2.1;;
70942;SDS011;59154;51.970;5.650;2022-10-16T08:50:08;3.0;;;2.2;;
70942;SDS011;59154;51.970;5.650;2022-10-16T08:55:02;5.0;;;2.6;;
70942;SDS011;59154;51.970;5.650;2022-10-16T09:00:08;5.7;;;2.2;;
70942;SDS011;59154;51.970;5.650;2022-10-16T09:05:11;5.4;;;2.0;;
70942;SDS011;59154;51.970;5.650;2022-10-16T09:10:06;4.8;;;2.4;;
70942;SDS011;59154;51.970;5.650;2022-10-16T09:15:05;6.3;;;2.1;;
70942;SDS011;59154;51.970;5.650;2022-10-16T09:20:11;3.7;;;2.1;;
70942;SDS011;59154;51.970;5.650;2022-10-16T09:25:09;5.3;;;2.0;;
70942;SDS011;59154;51.970;5.650;2022-10-16T09:30:06;4.8;;;2.0;;
70942;SDS011;59154;51.970;5.650;2022-10-16T09:35:03;8.4;;;2.2;;
70942;SDS011;59154;51.970;5.650;2022-10-16T09:40:04;6.1;;;2.1;;
70942;SDS011;59154;51.970;5.650;2022-10-16T09:45:02;7.9;;;2.8;;
70942;SDS011;59154;51.970;5.650;2022-10-16T09:50:03;4.4;;;2.0;;
70942;SDS011;59154;51.970;5.650;2022-10-16T09:55:02;8.1;;;2.8;;
70942;SDS011;59154;51.970;5.650;2022-10-16T10:00:08;5.0;;;2.7;;
70942;SDS011;59154;51.970;5.650;2022-10-16T10:05:03;8.4;;;3.0;;
70942;SDS011;59154;51.970;5.650;2022-10-16T10:10:03;5.5;;;1.9;;
70942;SDS011;59154;51.970;5.650;2022-10-16T10:15:04;7.7;;;2.4;;
70942;SDS011;59154;51.970;5.650;2022-10-16T10:20:15;5.1;;;2.2;;
70942;SDS011;59154;51.970;5.650;2022-10-16T10:25:38;9.0;;;2.9;;
70942;SDS011;59154;51.970;5.650;2022-10-16T10:30:04;5.4;;;2.3;;
70942;SDS011;59154;51.970;5.650;2022-10-16T10:35:06;7.9;;;2.6;;
70942;SDS011;59154;51.970;5.650;2022-10-16T10:40:04;8.2;;;3.0;;
70942;SDS011;59154;51.970;5.650;2022-10-16T10:45:11;8.5;;;2.3;;
70942;SDS011;59154;51.970;5.650;2022-10-16T10:50:06;8.4;;;3.1;;
70942;SDS011;59154;51.970;5.650;2022-10-16T10:55:06;7.1;;;2.2;;
70942;SDS011;59154;51.970;5.650;2022-10-16T11:00:07;5.1;;;2.3;;
70942;SDS011;59154;51.970;5.650;2022-10-16T11:05:09;5.9;;;2.3;;
70942;SDS011;59154;51.970;5.650;2022-10-16T11:10:03;7.3;;;2.6;;
70942;SDS011;59154;51.970;5.650;2022-10-16T11:15:03;8.0;;;2.5;;
70942;SDS011;59154;51.970;5.650;2022-10-16T11:20:04;7.1;;;2.4;;
70942;SDS011;59154;51.970;5.650;2022-10-16T11:25:04;5.4;;;1.8;;
70942;SDS011;59154;51.970;5.650;2022-10-16T11:30:03;6.5;;;2.4;;
70942;SDS011;59154;51.970;5.650;2022-10-16T11:35:05;5.6;;;2.0;;
70942;SDS011;59154;51.970;5.650;2022-10-16T11:40:04;5.8;;;2.3;;
70942;SDS011;59154;51.970;5.650;2022-10-16T11:45:03;5.4;;;2.4;;
70942;SDS011;59154;51.970;5.650;2022-10-16T11:50:04;7.0;;;2.2;;
70942;SDS011;59154;51.970;5.650;2022-10-16T11:55:04;9.9;;;2.7;;
70942;SDS011;59154;51.970;5.650;2022-10-16T12:00:04;6.8;;;2.1;;
70942;SDS011;59154;51.970;5.650;2022-10-16T12:05:06;11.4;;;2.5;;
70942;SDS011;59154;51.970;5.650;2022-10-16T12:10:09;6.6;;;2.3;;
70942;SDS011;59154;51.970;5.650;2022-10-16T12:15:15;5.8;;;2.6;;
70942;SDS011;59154;51.970;5.650;2022-10-16T12:20:18;6.9;;;2.1;;
70942;SDS011;59154;51.970;5.650;2022-10-16T12:25:02;6.2;;;2.1;;
70942;SDS011;59154;51.970;5.650;2022-10-16T12:30:03;8.6;;;2.3;;
70942;SDS011;59154;51.970;5.650;2022-10-16T12:35:03;5.9;;;2.9;;
70942;SDS011;59154;51.970;5.650;2022-10-16T12:40:11;8.4;;;2.6;;
70942;SDS011;59154;51.970;5.650;2022-10-16T12:45:12;4.5;;;1.9;;
70942;SDS011;59154;51.970;5.650;2022-10-16T12:50:02;14.8;;;2.2;;
70942;SDS011;59154;51.970;5.650;2022-10-16T12:55:04;7.4;;;2.3;;
70942;SDS011;59154;51.970;5.650;2022-10-16T13:00:04;5.7;;;2.8;;
70942;SDS011;59154;51.970;5.650;2022-10-16T13:05:09;7.3;;;2.0;;
70942;SDS011;59154;51.970;5.650;2022-10-16T13:10:06;5.8;;;2.1;;
70942;SDS011;59154;51.970;5.650;2022-10-16T13:15:06;4.5;;;1.9;;
70942;SDS011;59154;51.970;5.650;2022-10-16T13:20:06;6.4;;;2.1;;
70942;SDS011;59154;51.970;5.650;2022-10-16T13:25:08;5.9;;;2.2;;
70942;SDS011;59154;51.970;5.650;2022-10-16T13:30:08;6.1;;;2.2;;
70942;SDS011;59154;51.970;5.650;2022-10-16T13:35:03;4.0;;;1.9;;
70942;SDS011;59154;51.970;5.650;2022-10-16T13:40:09;5.9;;;2.2;;
70942;SDS011;59154;51.970;5.650;2022-10-16T13:45:02;5.8;;;2.1;;
70942;SDS011;59154;51.970;5.650;2022-10-16T13:50:04;6.6;;;2.4;;
70942;SDS011;59154;51.970;5.650;2022-10-16T13:55:03;4.7;;;2.3;;
70942;SDS011;59154;51.970;5.650;2022-10-16T14:00:05;4.6;;;1.6;;
70942;SDS011;59154;51.970;5.650;2022-10-16T14:05:03;7.5;;;2.2;;
70942;SDS011;59154;51.970;5.650;2022-10-16T14:10:03;11.4;;;2.8;;
70942;SDS011;59154;51.970;5.650;2022-10-16T14:15:02;9.4;;;2.5;;
70942;SDS011;59154;51.970;5.650;2022-10-16T14:20:04;6.5;;;2.3;;
70942;SDS011;59154;51.970;5.650;2022-10-16T14:25:02;7.3;;;2.2;;
70942;SDS011;59154;51.970;5.650;2022-10-16T14:30:08;7.8;;;2.8;;
70942;SDS011;59154;51.970;5.650;2022-10-16T14:35:02;6.0;;;2.4;;
70942;SDS011;59154;51.970;5.650;2022-10-16T14:40:03;8.3;;;2.6;;
70942;SDS011;59154;51.970;5.650;2022-10-16T14:45:07;5.9;;;2.1;;
70942;SDS011;59154;51.970;5.650;2022-10-16T14:50:02;6.1;;;2.2;;
70942;SDS011;59154;51.970;5.650;2022-10-16T14:55:02;6.9;;;2.3;;
70942;SDS011;59154;51.970;5.650;2022-10-16T15:00:03;6.5;;;2.5;;
70942;SDS011;59154;51.970;5.650;2022-10-16T15:05:07;7.4;;;2.8;;
70942;SDS011;59154;51.970;5.650;2022-10-16T15:10:02;5.5;;;2.3;;
70942;SDS011;59154;51.970;5.650;2022-10-16T15:15:08;4.8;;;1.9;;
70942;SDS011;59154;51.970;5.650;2022-10-16T15:20:03;7.0;;;2.7;;
70942;SDS011;59154;51.970;5.650;2022-10-16T15:25:04;6.8;;;2.7;;
70942;SDS011;59154;51.970;5.650;2022-10-16T15:30:02;5.2;;;2.7;;
70942;SDS011;59154;51.970;5.650;2022-10-16T15:35:02;8.1;;;3.1;;
70942;SDS011;59154;51.970;5.650;2022-10-16T15:40:03;11.0;;;2.6;;
70942;SDS011;59154;51.970;5.650;2022-10-16T15:45:02;6.4;;;2.5;;
70942;SDS011;59154;51.970;5.650;2022-10-16T15:50:03;7.2;;;2.6;;
70942;SDS011;59154;51.970;5.650;2022-10-16T15:55:02;8.9;;;2.6;;
70942;SDS011;59154;51.970;5.650;2022-10-16T16:00:03;4.1;;;2.2;;
70942;SDS011;59154;51.970;5.650;2022-10-16T16:05:03;6.0;;;2.3;;
70942;SDS011;59154;51.970;5.650;2022-10-16T16:10:03;6.2;;;2.5;;
70942;SDS011;59154;51.970;5.650;2022-10-16T16:15:03;7.2;;;2.5;;
70942;SDS011;59154;51.970;5.650;2022-10-16T16:20:03;8.1;;;2.6;;
70942;SDS011;59154;51.970;5.650;2022-10-16T16:25:02;8.1;;;2.9;;
70942;SDS011;59154;51.970;5.650;2022-10-16T16:30:03;7.9;;;3.5;;
70942;SDS011;59154;51.970;5.650;2022-10-16T16:35:02;5.0;;;2.9;;
70942;SDS011;59154;51.970;5.650;2022-10-16T16:40:04;6.3;;;2.9;;
70942;SDS011;59154;51.970;5.650;2022-10-16T16:45:03;6.9;;;2.9;;
70942;SDS011;59154;51.970;5.650;2022-10-16T16:50:03;7.2;;;3.0;;
70942;SDS011;59154;51.970;5.650;2022-10-16T16:55:03;5.2;;;3.0;;
70942;SDS011;59154;51.970;5.650;2022-10-16T17:00:03;9.0;;;4.2;;
70942;SDS011;59154;51.970;5.650;2022-10-16T17:05:02;7.8;;;3.6;;
70942;SDS011;59154;51.970;5.650;2022-10-16T17:10:03;8.5;;;3.2;;
70942;SDS011;59154;51.970;5.650;2022-10-16T17:15:02;6.4;;;2.8;;
70942;SDS011;59154;51.970;5.650;2022-10-16T17:20:02;7.4;;;2.9;;
70942;SDS011;59154;51.970;5.650;2022-10-16T17:25:02;8.6;;;3.3;;
70942;SDS011;59154;51.970;5.650;2022-10-16T17:30:03;8.2;;;3.3;;
70942;SDS011;59154;51.970;5.650;2022-10-16T17:35:02;5.8;;;2.8;;
70942;SDS011;59154;51.970;5.650;2022-10-16T17:40:04;5.8;;;2.7;;
70942;SDS011;59154;51.970;5.650;2022-10-16T17:45:02;6.7;;;3.0;;
70942;SDS011;59154;51.970;5.650;2022-10-16T17:50:03;8.8;;;2.9;;
70942;SDS011;59154;51.970;5.650;2022-10-16T17:55:02;7.0;;;3.9;;
70942;SDS011;59154;51.970;5.650;2022-10-16T18:00:03;6.4;;;3.5;;
70942;SDS011;59154;51.970;5.650;2022-10-16T18:05:02;7.8;;;2.8;;
70942;SDS011;59154;51.970;5.650;2022-10-16T18:10:03;5.8;;;3.1;;
70942;SDS011;59154;51.970;5.650;2022-10-16T18:15:03;6.5;;;2.9;;
70942;SDS011;59154;51.970;5.650;2022-10-16T18:20:04;5.3;;;2.7;;
70942;SDS011;59154;51.970;5.650;2022-10-16T18:25:02;5.1;;;2.2;;
70942;SDS011;59154;51.970;5.650;2022-10-16T18:30:03;5.0;;;2.1;;
70942;SDS011;59154;51.970;5.650;2022-10-16T18:35:02;6.8;;;2.9;;
70942;SDS011;59154;51.970;5.650;2022-10-16T18:40:03;4.8;;;2.6;;
70942;SDS011;59154;51.970;5.650;2022-10-16T18:45:02;6.6;;;3.1;;
70942;SDS011;59154;51.970;5.650;2022-10-16T18:50:03;8.1;;;3.1;;
70942;SDS011;59154;51.970;5.650;2022-10-16T18:55:02;5.2;;;3.2;;
70942;SDS011;59154;51.970;5.650;2022-10-16T19:00:04;8.7;;;3.6;;
70942;SDS011;59154;51.970;5.650;2022-10-16T19:05:03;6.5;;;3.3;;
70942;SDS011;59154;51.970;5.650;2022-10-16T19:10:02;6.1;;;3.5;;
70942;SDS011;59154;51.970;5.650;2022-10-16T19:15:02;8.2;;;3.9;;
70942;SDS011;59154;51.970;5.650;2022-10-16T19:20:03;9.1;;;3.5;;
70942;SDS011;59154;51.970;5.650;2022-10-16T19:25:02;7.0;;;4.2;;
70942;SDS011;59154;51.970;5.650;2022-10-16T19:30:03;6.6;;;3.6;;
70942;SDS011;59154;51.970;5.650;2022-10-16T19:35:02;7.6;;;3.3;;
70942;SDS011;59154;51.970;5.650;2022-10-16T19:40:03;6.4;;;3.7;;
70942;SDS011;59154;51.970;5.650;2022-10-16T19:45:02;6.1;;;3.7;;
70942;SDS011;59154;51.970;5.650;2022-10-16T19:50:02;8.4;;;3.9;;
70942;SDS011;59154;51.970;5.650;2022-10-16T19:55:02;9.0;;;4.7;;
70942;SDS011;59154;51.970;5.650;2022-10-16T20:00:03;6.5;;;3.9;;
70942;SDS011;59154;51.970;5.650;2022-10-16T20:05:02;12.3;;;5.2;;
70942;SDS011;59154;51.970;5.650;2022-10-16T20:10:02;8.1;;;4.9;;
70942;SDS011;59154;51.970;5.650;2022-10-16T20:15:02;8.3;;;4.3;;
70942;SDS011;59154;51.970;5.650;2022-10-16T20:20:03;8.6;;;4.5;;
70942;SDS011;59154;51.970;5.650;2022-10-16T20:25:03;7.6;;;4.0;;
70942;SDS011;59154;51.970;5.650;2022-10-16T20:30:03;8.1;;;4.3;;
70942;SDS011;59154;51.970;5.650;2022-10-16T20:35:02;9.3;;;5.1;;
70942;SDS011;59154;51.970;5.650;2022-10-16T20:40:03;9.5;;;4.6;;
70942;SDS011;59154;51.970;5.650;2022-10-16T20:45:02;6.8;;;4.0;;
70942;SDS011;59154;51.970;5.650;2022-10-16T20:50:02;6.8;;;4.4;;
70942;SDS011;59154;51.970;5.650;2022-10-16T20:55:02;5.0;;;3.8;;
70942;SDS011;59154;51.970;5.650;2022-10-16T21:00:03;7.0;;;4.1;;
70942;SDS011;59154;51.970;5.650;2022-10-16T21:05:02;9.3;;;4.2;;
70942;SDS011;59154;51.970;5.650;2022-10-16T21:10:03;6.3;;;4.4;;
70942;SDS011;59154;51.970;5.650;2022-10-16T21:15:02;8.9;;;4.2;;
70942;SDS011;59154;51.970;5.650;2022-10-16T21:20:03;8.4;;;4.1;;
70942;SDS011;59154;51.970;5.650;2022-10-16T21:25:02;10.5;;;5.1;;
70942;SDS011;59154;51.970;5.650;2022-10-16T21:30:02;6.3;;;4.9;;
70942;SDS011;59154;51.970;5.650;2022-10-16T21:35:02;6.7;;;4.3;;
70942;SDS011;59154;51.970;5.650;2022-10-16T21:40:04;6.9;;;4.1;;
70942;SDS011;59154;51.970;5.650;2022-10-16T21:45:02;6.2;;;4.5;;
70942;SDS011;59154;51.970;5.650;2022-10-16T21:50:03;8.0;;;4.8;;
70942;SDS011;59154;51.970;5.650;2022-10-16T21:55:02;9.8;;;5.6;;
70942;SDS011;59154;51.970;5.650;2022-10-16T22:00:03;7.4;;;4.8;;
70942;SDS011;59154;51.970;5.650;2022-10-16T22:05:02;7.2;;;4.9;;
70942;SDS011;59154;51.970;5.650;2022-10-16T22:10:02;5.9;;;3.9;;
70942;SDS011;59154;51.970;5.650;2022-10-16T22:15:02;7.3;;;4.3;;
70942;SDS011;59154;51.970;5.650;2022-10-16T22:20:03;5.9;;;4.2;;
70942;SDS011;59154;51.970;5.650;2022-10-16T22:25:02;7.0;;;3.9;;
70942;SDS011;59154;51.970;5.650;2022-10-16T22:30:03;6.9;;;4.0;;
70942;SDS011;59154;51.970;5.650;2022-10-16T22:35:02;5.4;;;3.8;;
70942;SDS011;59154;51.970;5.650;2022-10-16T22:40:03;7.8;;;4.9;;
70942;SDS011;59154;51.970;5.650;2022-10-16T22:45:02;6.3;;;4.7;;
70942;SDS011;59154;51.970;5.650;2022-10-16T22:50:02;5.6;;;4.5;;
70942;SDS011;59154;51.970;5.650;2022-10-16T22:55:02;5.1;;;4.1;;
70942;SDS011;59154;51.970;5.650;2022-10-16T23:00:03;6.6;;;4.5;;
70942;SDS011;59154;51.970;5.650;2022-10-16T23:05:02;7.7;;;5.2;;
70942;SDS011;59154;51.970;5.650;2022-10-16T23:10:02;6.5;;;5.0;;
70942;SDS011;59154;51.970;5.650;2022-10-16T23:15:02;10.8;;;5.6;;
70942;SDS011;59154;51.970;5.650;2022-10-16T23:20:04;8.0;;;4.9;;
70942;SDS011;59154;51.970;5.650;2022-10-16T23:25:03;7.1;;;5.0;;
70942;SDS011;59154;51.970;5.650;2022-10-16T23:30:02;6.9;;;5.3;;
70942;SDS011;59154;51.970;5.650;2022-10-16T23:35:03;8.8;;;4.7;;
70942;SDS011;59154;51.970;5.650;2022-10-16T23:40:03;6.6;;;4.9;;
70942;SDS011;59154;51.970;5.650;2022-10-16T23:45:02;6.8;;;5.2;;
70942;SDS011;59154;51.970;5.650;2022-10-16T23:50:03;5.6;;;4.6;;
70942;SDS011;59154;51.970;5.650;2022-10-16T23:55:02;7.8;;;5.4;;
